sensor_id;sensor_type;location;lat;lon;timestamp;temperature;humidity
32809;DHT22;19159;48.178;16.386;2023-07-20T00:02:10;26.90;69.60
32809;DHT22;19159;48.178;16.386;2023-07-20T00:04:36;26.80;69.60
32809;DHT22;19159;48.178;16.386;2023-07-20T00:07:02;26.80;69.60
32809;DHT22;19159;48.178;16.386;2023-07-20T00:09:27;26.80;69.50
32809;DHT22;19159;48.178;16.386;2023-07-20T00:11:53;26.80;69.50
32809;DHT22;19159;48.178;16.386;2023-07-20T00:14:19;26.90;69.30
32809;DHT22;19159;48.178;16.386;2023-07-20T00:16:45;27.00;69.20
32809;DHT22;19159;48.178;16.386;2023-07-20T00:19:12;27.10;69.00
32809;DHT22;19159;48.178;16.386;2023-07-20T00:21:38;27.30;68.80
32809;DHT22;19159;48.178;16.386;2023-07-20T00:24:06;27.30;68.50
32809;DHT22;19159;48.178;16.386;2023-07-20T00:26:31;27.40;68.30
32809;DHT22;19159;48.178;16.386;2023-07-20T00:28:57;27.50;68.10
32809;DHT22;19159;48.178;16.386;2023-07-20T00:31:23;27.50;67.90
32809;DHT22;19159;48.178;16.386;2023-07-20T00:33:48;27.50;67.70
32809;DHT22;19159;48.178;16.386;2023-07-20T00:36:14;27.50;67.90
32809;DHT22;19159;48.178;16.386;2023-07-20T00:38:39;27.40;67.70
32809;DHT22;19159;48.178;16.386;2023-07-20T00:41:06;27.40;67.80
32809;DHT22;19159;48.178;16.386;2023-07-20T00:43:31;27.30;67.90
32809;DHT22;19159;48.178;16.386;2023-07-20T00:45:57;27.20;68.30
32809;DHT22;19159;48.178;16.386;2023-07-20T00:48:23;27.10;68.60
32809;DHT22;19159;48.178;16.386;2023-07-20T00:50:49;27.00;69.90
32809;DHT22;19159;48.178;16.386;2023-07-20T00:53:15;26.90;69.50
32809;DHT22;19159;48.178;16.386;2023-07-20T00:55:41;26.80;70.00
32809;DHT22;19159;48.178;16.386;2023-07-20T00:58:06;26.80;70.40
32809;DHT22;19159;48.178;16.386;2023-07-20T01:00:32;26.70;70.90
32809;DHT22;19159;48.178;16.386;2023-07-20T01:02:58;26.70;71.20
32809;DHT22;19159;48.178;16.386;2023-07-20T01:05:30;26.70;71.60
32809;DHT22;19159;48.178;16.386;2023-07-20T01:08:00;26.60;71.70
32809;DHT22;19159;48.178;16.386;2023-07-20T01:13:01;26.60;72.00
32809;DHT22;19159;48.178;16.386;2023-07-20T01:15:27;26.60;72.00
32809;DHT22;19159;48.178;16.386;2023-07-20T01:17:53;26.70;71.70
32809;DHT22;19159;48.178;16.386;2023-07-20T01:20:20;26.80;71.50
32809;DHT22;19159;48.178;16.386;2023-07-20T01:33:36;26.90;71.00
32809;DHT22;19159;48.178;16.386;2023-07-20T01:36:03;26.90;71.00
32809;DHT22;19159;48.178;16.386;2023-07-20T01:38:30;26.90;70.70
32809;DHT22;19159;48.178;16.386;2023-07-20T01:40:57;26.90;70.60
32809;DHT22;19159;48.178;16.386;2023-07-20T01:43:23;27.00;70.60
32809;DHT22;19159;48.178;16.386;2023-07-20T01:45:48;27.00;70.40
32809;DHT22;19159;48.178;16.386;2023-07-20T01:48:14;27.00;70.40
32809;DHT22;19159;48.178;16.386;2023-07-20T01:50:40;27.00;70.20
32809;DHT22;19159;48.178;16.386;2023-07-20T01:53:05;27.00;70.30
32809;DHT22;19159;48.178;16.386;2023-07-20T01:55:31;27.00;70.30
32809;DHT22;19159;48.178;16.386;2023-07-20T01:57:57;27.00;70.30
32809;DHT22;19159;48.178;16.386;2023-07-20T02:00:24;27.10;70.50
32809;DHT22;19159;48.178;16.386;2023-07-20T02:02:50;27.00;70.60
32809;DHT22;19159;48.178;16.386;2023-07-20T02:05:16;27.00;70.70
32809;DHT22;19159;48.178;16.386;2023-07-20T02:07:42;26.90;70.90
32809;DHT22;19159;48.178;16.386;2023-07-20T02:10:08;26.90;71.20
32809;DHT22;19159;48.178;16.386;2023-07-20T02:12:34;26.80;71.40
32809;DHT22;19159;48.178;16.386;2023-07-20T02:15:00;26.80;71.80
32809;DHT22;19159;48.178;16.386;2023-07-20T02:17:26;26.80;72.00
32809;DHT22;19159;48.178;16.386;2023-07-20T02:19:56;26.70;72.20
32809;DHT22;19159;48.178;16.386;2023-07-20T02:22:23;26.80;72.40
32809;DHT22;19159;48.178;16.386;2023-07-20T02:24:49;26.80;72.50
32809;DHT22;19159;48.178;16.386;2023-07-20T02:27:15;26.80;72.60
32809;DHT22;19159;48.178;16.386;2023-07-20T02:29:41;26.70;72.90
32809;DHT22;19159;48.178;16.386;2023-07-20T02:32:08;26.70;73.00
32809;DHT22;19159;48.178;16.386;2023-07-20T02:34:34;26.70;73.00
32809;DHT22;19159;48.178;16.386;2023-07-20T02:37:00;26.70;73.20
32809;DHT22;19159;48.178;16.386;2023-07-20T02:39:29;26.70;73.10
32809;DHT22;19159;48.178;16.386;2023-07-20T02:41:55;26.70;73.10
32809;DHT22;19159;48.178;16.386;2023-07-20T02:44:20;26.70;73.30
32809;DHT22;19159;48.178;16.386;2023-07-20T02:46:46;26.60;73.30
32809;DHT22;19159;48.178;16.386;2023-07-20T02:49:12;26.60;73.40
32809;DHT22;19159;48.178;16.386;2023-07-20T02:51:37;26.60;73.30
32809;DHT22;19159;48.178;16.386;2023-07-20T02:54:03;26.60;73.40
32809;DHT22;19159;48.178;16.386;2023-07-20T02:56:29;26.60;73.40
32809;DHT22;19159;48.178;16.386;2023-07-20T02:58:54;26.60;73.50
32809;DHT22;19159;48.178;16.386;2023-07-20T03:01:20;26.70;73.50
32809;DHT22;19159;48.178;16.386;2023-07-20T03:03:46;26.60;73.40
32809;DHT22;19159;48.178;16.386;2023-07-20T03:06:15;26.60;73.50
32809;DHT22;19159;48.178;16.386;2023-07-20T03:08:41;26.60;73.40
32809;DHT22;19159;48.178;16.386;2023-07-20T03:11:15;26.50;73.50
32809;DHT22;19159;48.178;16.386;2023-07-20T03:13:42;26.50;73.60
32809;DHT22;19159;48.178;16.386;2023-07-20T03:16:08;26.50;73.60
32809;DHT22;19159;48.178;16.386;2023-07-20T03:18:39;26.50;73.60
32809;DHT22;19159;48.178;16.386;2023-07-20T03:21:07;26.40;73.80
32809;DHT22;19159;48.178;16.386;2023-07-20T03:23:32;26.40;73.80
32809;DHT22;19159;48.178;16.386;2023-07-20T03:25:58;26.40;73.80
32809;DHT22;19159;48.178;16.386;2023-07-20T03:28:24;26.40;73.70
32809;DHT22;19159;48.178;16.386;2023-07-20T03:30:53;26.40;73.70
32809;DHT22;19159;48.178;16.386;2023-07-20T03:33:30;26.30;73.40
32809;DHT22;19159;48.178;16.386;2023-07-20T03:35:56;26.30;73.30
32809;DHT22;19159;48.178;16.386;2023-07-20T03:38:25;26.30;73.00
32809;DHT22;19159;48.178;16.386;2023-07-20T03:40:55;26.30;73.20
32809;DHT22;19159;48.178;16.386;2023-07-20T03:43:25;26.30;73.10
32809;DHT22;19159;48.178;16.386;2023-07-20T03:45:51;26.30;73.10
32809;DHT22;19159;48.178;16.386;2023-07-20T03:48:19;26.30;73.00
32809;DHT22;19159;48.178;16.386;2023-07-20T03:50:45;26.30;73.10
32809;DHT22;19159;48.178;16.386;2023-07-20T03:53:12;26.20;73.30
32809;DHT22;19159;48.178;16.386;2023-07-20T03:55:38;26.20;73.50
32809;DHT22;19159;48.178;16.386;2023-07-20T03:58:03;26.20;73.70
32809;DHT22;19159;48.178;16.386;2023-07-20T04:00:29;26.20;73.90
32809;DHT22;19159;48.178;16.386;2023-07-20T04:02:55;26.20;73.90
32809;DHT22;19159;48.178;16.386;2023-07-20T04:05:20;26.30;73.80
32809;DHT22;19159;48.178;16.386;2023-07-20T04:07:46;26.30;73.80
32809;DHT22;19159;48.178;16.386;2023-07-20T04:10:12;26.40;73.80
32809;DHT22;19159;48.178;16.386;2023-07-20T04:12:38;26.40;73.80
32809;DHT22;19159;48.178;16.386;2023-07-20T04:15:04;26.40;73.80
32809;DHT22;19159;48.178;16.386;2023-07-20T04:17:29;26.40;73.90
32809;DHT22;19159;48.178;16.386;2023-07-20T04:19:55;26.40;74.00
32809;DHT22;19159;48.178;16.386;2023-07-20T04:22:21;26.40;74.20
32809;DHT22;19159;48.178;16.386;2023-07-20T04:24:47;26.40;74.40
32809;DHT22;19159;48.178;16.386;2023-07-20T04:27:12;26.40;74.50
32809;DHT22;19159;48.178;16.386;2023-07-20T04:29:38;26.30;74.90
32809;DHT22;19159;48.178;16.386;2023-07-20T04:32:04;26.40;75.30
32809;DHT22;19159;48.178;16.386;2023-07-20T04:34:29;26.40;75.00
32809;DHT22;19159;48.178;16.386;2023-07-20T04:36:55;26.50;75.00
32809;DHT22;19159;48.178;16.386;2023-07-20T04:39:20;26.50;75.00
32809;DHT22;19159;48.178;16.386;2023-07-20T04:41:46;26.50;75.00
32809;DHT22;19159;48.178;16.386;2023-07-20T04:44:13;26.60;75.00
32809;DHT22;19159;48.178;16.386;2023-07-20T04:46:39;26.60;75.20
32809;DHT22;19159;48.178;16.386;2023-07-20T04:49:05;26.60;75.20
32809;DHT22;19159;48.178;16.386;2023-07-20T04:51:31;26.60;75.30
32809;DHT22;19159;48.178;16.386;2023-07-20T04:53:57;26.60;75.40
32809;DHT22;19159;48.178;16.386;2023-07-20T04:56:23;26.50;75.70
32809;DHT22;19159;48.178;16.386;2023-07-20T04:58:50;26.60;75.80
32809;DHT22;19159;48.178;16.386;2023-07-20T05:01:15;26.70;75.80
32809;DHT22;19159;48.178;16.386;2023-07-20T05:03:41;26.70;75.80
32809;DHT22;19159;48.178;16.386;2023-07-20T05:06:06;26.80;75.90
32809;DHT22;19159;48.178;16.386;2023-07-20T05:08:32;26.70;76.00
32809;DHT22;19159;48.178;16.386;2023-07-20T05:10:59;26.80;76.00
32809;DHT22;19159;48.178;16.386;2023-07-20T05:13:24;27.00;75.90
32809;DHT22;19159;48.178;16.386;2023-07-20T05:15:53;26.90;75.60
32809;DHT22;19159;48.178;16.386;2023-07-20T05:18:20;27.00;75.80
32809;DHT22;19159;48.178;16.386;2023-07-20T05:20:49;26.90;75.60
32809;DHT22;19159;48.178;16.386;2023-07-20T05:23:19;27.00;75.60
32809;DHT22;19159;48.178;16.386;2023-07-20T05:25:54;27.10;75.70
32809;DHT22;19159;48.178;16.386;2023-07-20T05:28:20;27.20;75.40
32809;DHT22;19159;48.178;16.386;2023-07-20T05:30:46;27.30;75.20
32809;DHT22;19159;48.178;16.386;2023-07-20T05:33:11;27.40;74.90
32809;DHT22;19159;48.178;16.386;2023-07-20T05:35:37;27.60;74.50
32809;DHT22;19159;48.178;16.386;2023-07-20T05:38:03;27.70;74.30
32809;DHT22;19159;48.178;16.386;2023-07-20T05:40:30;27.70;74.20
32809;DHT22;19159;48.178;16.386;2023-07-20T05:42:56;27.90;74.00
32809;DHT22;19159;48.178;16.386;2023-07-20T05:45:22;28.00;73.30
32809;DHT22;19159;48.178;16.386;2023-07-20T05:47:48;28.20;73.30
32809;DHT22;19159;48.178;16.386;2023-07-20T05:50:14;28.50;73.30
32809;DHT22;19159;48.178;16.386;2023-07-20T05:52:40;28.70;72.20
32809;DHT22;19159;48.178;16.386;2023-07-20T05:55:06;28.80;72.70
32809;DHT22;19159;48.178;16.386;2023-07-20T05:57:32;28.90;71.80
32809;DHT22;19159;48.178;16.386;2023-07-20T05:59:58;29.00;71.30
32809;DHT22;19159;48.178;16.386;2023-07-20T06:02:23;29.10;71.20
32809;DHT22;19159;48.178;16.386;2023-07-20T06:04:49;29.20;70.70
32809;DHT22;19159;48.178;16.386;2023-07-20T06:07:15;29.40;70.50
32809;DHT22;19159;48.178;16.386;2023-07-20T06:09:40;29.50;70.00
32809;DHT22;19159;48.178;16.386;2023-07-20T06:12:07;29.60;69.60
32809;DHT22;19159;48.178;16.386;2023-07-20T06:14:33;29.70;69.70
32809;DHT22;19159;48.178;16.386;2023-07-20T06:16:58;29.90;69.10
32809;DHT22;19159;48.178;16.386;2023-07-20T06:19:24;30.00;68.90
32809;DHT22;19159;48.178;16.386;2023-07-20T06:21:50;30.10;68.20
32809;DHT22;19159;48.178;16.386;2023-07-20T06:24:16;30.20;68.10
32809;DHT22;19159;48.178;16.386;2023-07-20T06:26:42;30.20;67.60
32809;DHT22;19159;48.178;16.386;2023-07-20T06:29:08;30.30;67.20
32809;DHT22;19159;48.178;16.386;2023-07-20T06:31:37;30.40;66.90
32809;DHT22;19159;48.178;16.386;2023-07-20T06:34:03;30.60;67.20
32809;DHT22;19159;48.178;16.386;2023-07-20T06:36:29;31.00;66.50
32809;DHT22;19159;48.178;16.386;2023-07-20T06:38:55;31.20;65.80
32809;DHT22;19159;48.178;16.386;2023-07-20T06:41:21;31.40;65.60
32809;DHT22;19159;48.178;16.386;2023-07-20T06:43:47;31.70;65.20
32809;DHT22;19159;48.178;16.386;2023-07-20T06:46:13;31.80;64.40
32809;DHT22;19159;48.178;16.386;2023-07-20T06:48:39;32.00;63.60
32809;DHT22;19159;48.178;16.386;2023-07-20T06:51:05;32.30;63.10
32809;DHT22;19159;48.178;16.386;2023-07-20T06:53:30;32.40;62.70
32809;DHT22;19159;48.178;16.386;2023-07-20T06:55:56;32.50;62.20
32809;DHT22;19159;48.178;16.386;2023-07-20T06:58:25;32.60;61.60
32809;DHT22;19159;48.178;16.386;2023-07-20T07:00:51;32.70;60.90
32809;DHT22;19159;48.178;16.386;2023-07-20T07:03:17;32.70;61.10
32809;DHT22;19159;48.178;16.386;2023-07-20T07:05:43;32.70;61.20
32809;DHT22;19159;48.178;16.386;2023-07-20T07:08:11;32.90;61.30
32809;DHT22;19159;48.178;16.386;2023-07-20T07:10:37;33.10;61.00
32809;DHT22;19159;48.178;16.386;2023-07-20T07:13:03;33.10;60.60
32809;DHT22;19159;48.178;16.386;2023-07-20T07:15:29;33.00;60.40
32809;DHT22;19159;48.178;16.386;2023-07-20T07:17:54;32.90;60.30
32809;DHT22;19159;48.178;16.386;2023-07-20T07:20:21;32.70;60.10
32809;DHT22;19159;48.178;16.386;2023-07-20T07:22:47;32.60;60.80
32809;DHT22;19159;48.178;16.386;2023-07-20T07:25:13;32.60;60.50
32809;DHT22;19159;48.178;16.386;2023-07-20T07:27:38;32.40;60.00
32809;DHT22;19159;48.178;16.386;2023-07-20T07:30:05;32.20;60.60
32809;DHT22;19159;48.178;16.386;2023-07-20T07:32:31;32.00;60.90
32809;DHT22;19159;48.178;16.386;2023-07-20T07:34:56;31.80;61.50
32809;DHT22;19159;48.178;16.386;2023-07-20T07:37:24;31.70;61.80
32809;DHT22;19159;48.178;16.386;2023-07-20T07:39:49;31.60;62.10
32809;DHT22;19159;48.178;16.386;2023-07-20T07:42:15;31.50;62.30
32809;DHT22;19159;48.178;16.386;2023-07-20T07:44:40;31.40;62.50
32809;DHT22;19159;48.178;16.386;2023-07-20T07:47:06;31.40;62.90
32809;DHT22;19159;48.178;16.386;2023-07-20T07:49:32;31.30;63.00
32809;DHT22;19159;48.178;16.386;2023-07-20T07:51:57;31.30;63.70
32809;DHT22;19159;48.178;16.386;2023-07-20T07:54:23;31.50;64.00
32809;DHT22;19159;48.178;16.386;2023-07-20T07:56:49;31.50;64.20
32809;DHT22;19159;48.178;16.386;2023-07-20T07:59:14;31.50;63.60
32809;DHT22;19159;48.178;16.386;2023-07-20T08:01:40;31.50;64.00
32809;DHT22;19159;48.178;16.386;2023-07-20T08:04:05;31.70;64.10
32809;DHT22;19159;48.178;16.386;2023-07-20T08:06:31;31.60;64.60
32809;DHT22;19159;48.178;16.386;2023-07-20T08:08:57;31.40;63.60
32809;DHT22;19159;48.178;16.386;2023-07-20T08:11:23;31.20;64.00
32809;DHT22;19159;48.178;16.386;2023-07-20T08:13:49;31.20;64.40
32809;DHT22;19159;48.178;16.386;2023-07-20T08:16:15;31.30;64.90
32809;DHT22;19159;48.178;16.386;2023-07-20T08:18:40;31.20;64.80
32809;DHT22;19159;48.178;16.386;2023-07-20T08:21:06;31.30;65.40
32809;DHT22;19159;48.178;16.386;2023-07-20T08:23:32;31.40;64.80
32809;DHT22;19159;48.178;16.386;2023-07-20T08:25:57;31.50;63.80
32809;DHT22;19159;48.178;16.386;2023-07-20T08:28:23;31.50;62.50
32809;DHT22;19159;48.178;16.386;2023-07-20T08:30:49;31.60;63.00
32809;DHT22;19159;48.178;16.386;2023-07-20T08:33:15;31.60;62.60
32809;DHT22;19159;48.178;16.386;2023-07-20T08:35:42;31.60;62.70
32809;DHT22;19159;48.178;16.386;2023-07-20T08:38:08;31.50;62.80
32809;DHT22;19159;48.178;16.386;2023-07-20T08:40:42;31.50;62.60
32809;DHT22;19159;48.178;16.386;2023-07-20T08:43:12;31.50;62.80
32809;DHT22;19159;48.178;16.386;2023-07-20T08:45:40;31.50;62.80
32809;DHT22;19159;48.178;16.386;2023-07-20T08:48:06;31.40;63.00
32809;DHT22;19159;48.178;16.386;2023-07-20T08:50:33;31.50;63.30
32809;DHT22;19159;48.178;16.386;2023-07-20T08:52:59;31.40;63.10
32809;DHT22;19159;48.178;16.386;2023-07-20T08:55:29;31.40;63.30
32809;DHT22;19159;48.178;16.386;2023-07-20T08:57:56;31.30;63.00
32809;DHT22;19159;48.178;16.386;2023-07-20T09:00:22;31.20;63.30
32809;DHT22;19159;48.178;16.386;2023-07-20T09:02:53;31.20;64.10
32809;DHT22;19159;48.178;16.386;2023-07-20T09:05:20;31.00;63.40
32809;DHT22;19159;48.178;16.386;2023-07-20T09:07:46;31.00;63.80
32809;DHT22;19159;48.178;16.386;2023-07-20T09:10:12;31.00;63.80
32809;DHT22;19159;48.178;16.386;2023-07-20T09:12:42;30.90;64.00
32809;DHT22;19159;48.178;16.386;2023-07-20T09:15:09;30.90;64.60
32809;DHT22;19159;48.178;16.386;2023-07-20T09:17:35;31.00;64.60
32809;DHT22;19159;48.178;16.386;2023-07-20T09:20:06;31.10;64.00
32809;DHT22;19159;48.178;16.386;2023-07-20T09:22:39;31.10;64.30
32809;DHT22;19159;48.178;16.386;2023-07-20T09:25:12;31.20;64.30
32809;DHT22;19159;48.178;16.386;2023-07-20T09:27:50;31.10;64.20
32809;DHT22;19159;48.178;16.386;2023-07-20T09:30:16;31.10;63.70
32809;DHT22;19159;48.178;16.386;2023-07-20T09:32:44;31.20;63.40
32809;DHT22;19159;48.178;16.386;2023-07-20T09:37:40;31.30;63.50
32809;DHT22;19159;48.178;16.386;2023-07-20T09:40:07;31.30;63.50
32809;DHT22;19159;48.178;16.386;2023-07-20T09:42:35;31.40;63.40
32809;DHT22;19159;48.178;16.386;2023-07-20T09:45:02;31.30;63.30
32809;DHT22;19159;48.178;16.386;2023-07-20T09:47:28;31.20;63.00
32809;DHT22;19159;48.178;16.386;2023-07-20T09:49:58;30.80;63.80
32809;DHT22;19159;48.178;16.386;2023-07-20T09:52:25;30.80;64.60
32809;DHT22;19159;48.178;16.386;2023-07-20T09:54:51;31.00;64.00
32809;DHT22;19159;48.178;16.386;2023-07-20T09:57:18;30.90;63.00
32809;DHT22;19159;48.178;16.386;2023-07-20T09:59:43;30.80;62.60
32809;DHT22;19159;48.178;16.386;2023-07-20T10:02:21;30.80;63.10
32809;DHT22;19159;48.178;16.386;2023-07-20T10:04:53;30.70;62.90
32809;DHT22;19159;48.178;16.386;2023-07-20T10:07:19;30.80;63.50
32809;DHT22;19159;48.178;16.386;2023-07-20T10:09:48;30.80;63.90
32809;DHT22;19159;48.178;16.386;2023-07-20T10:12:17;30.80;64.30
32809;DHT22;19159;48.178;16.386;2023-07-20T10:14:53;30.80;63.30
32809;DHT22;19159;48.178;16.386;2023-07-20T10:17:21;30.90;62.70
32809;DHT22;19159;48.178;16.386;2023-07-20T10:19:50;31.00;61.90
32809;DHT22;19159;48.178;16.386;2023-07-20T10:22:25;30.80;61.70
32809;DHT22;19159;48.178;16.386;2023-07-20T10:24:51;30.70;61.40
32809;DHT22;19159;48.178;16.386;2023-07-20T10:27:24;30.50;61.00
32809;DHT22;19159;48.178;16.386;2023-07-20T10:29:51;30.50;61.00
32809;DHT22;19159;48.178;16.386;2023-07-20T10:32:20;30.30;60.70
32809;DHT22;19159;48.178;16.386;2023-07-20T10:34:52;30.40;61.40
32809;DHT22;19159;48.178;16.386;2023-07-20T10:40:41;30.40;60.40
32809;DHT22;19159;48.178;16.386;2023-07-20T10:43:08;30.40;60.00
32809;DHT22;19159;48.178;16.386;2023-07-20T10:45:47;30.30;60.30
32809;DHT22;19159;48.178;16.386;2023-07-20T10:51:09;30.60;60.90
32809;DHT22;19159;48.178;16.386;2023-07-20T10:53:35;30.80;60.40
32809;DHT22;19159;48.178;16.386;2023-07-20T10:56:15;30.90;59.90
32809;DHT22;19159;48.178;16.386;2023-07-20T10:58:41;31.00;59.60
32809;DHT22;19159;48.178;16.386;2023-07-20T11:01:08;31.00;59.30
32809;DHT22;19159;48.178;16.386;2023-07-20T11:03:39;31.00;59.20
32809;DHT22;19159;48.178;16.386;2023-07-20T11:08:55;30.90;58.80
32809;DHT22;19159;48.178;16.386;2023-07-20T11:11:31;30.80;59.30
32809;DHT22;19159;48.178;16.386;2023-07-20T11:14:01;30.60;59.30
32809;DHT22;19159;48.178;16.386;2023-07-20T11:19:13;30.70;59.70
32809;DHT22;19159;48.178;16.386;2023-07-20T11:21:42;30.70;59.60
32809;DHT22;19159;48.178;16.386;2023-07-20T11:24:08;30.70;59.50
32809;DHT22;19159;48.178;16.386;2023-07-20T11:26:53;30.60;59.00
32809;DHT22;19159;48.178;16.386;2023-07-20T11:29:20;30.70;59.10
32809;DHT22;19159;48.178;16.386;2023-07-20T11:31:47;30.70;59.50
32809;DHT22;19159;48.178;16.386;2023-07-20T11:34:14;30.90;59.30
32809;DHT22;19159;48.178;16.386;2023-07-20T11:36:45;30.90;58.40
32809;DHT22;19159;48.178;16.386;2023-07-20T11:39:13;31.00;57.80
32809;DHT22;19159;48.178;16.386;2023-07-20T11:41:41;30.80;57.50
32809;DHT22;19159;48.178;16.386;2023-07-20T11:44:10;30.70;57.80
32809;DHT22;19159;48.178;16.386;2023-07-20T11:46:39;30.70;57.80
32809;DHT22;19159;48.178;16.386;2023-07-20T11:49:05;30.70;58.20
32809;DHT22;19159;48.178;16.386;2023-07-20T11:51:31;30.60;57.60
32809;DHT22;19159;48.178;16.386;2023-07-20T11:53:57;30.50;57.40
32809;DHT22;19159;48.178;16.386;2023-07-20T11:56:25;30.40;57.30
32809;DHT22;19159;48.178;16.386;2023-07-20T11:58:54;30.40;57.50
32809;DHT22;19159;48.178;16.386;2023-07-20T12:01:20;30.40;57.80
32809;DHT22;19159;48.178;16.386;2023-07-20T12:03:47;30.30;58.10
32809;DHT22;19159;48.178;16.386;2023-07-20T12:06:13;30.50;58.60
32809;DHT22;19159;48.178;16.386;2023-07-20T12:08:43;30.40;58.00
32809;DHT22;19159;48.178;16.386;2023-07-20T12:11:10;30.50;58.30
32809;DHT22;19159;48.178;16.386;2023-07-20T12:13:57;30.50;58.40
32809;DHT22;19159;48.178;16.386;2023-07-20T12:16:27;30.50;58.00
32809;DHT22;19159;48.178;16.386;2023-07-20T12:19:00;30.50;57.70
32809;DHT22;19159;48.178;16.386;2023-07-20T12:21:26;30.50;57.30
32809;DHT22;19159;48.178;16.386;2023-07-20T12:23:52;30.50;57.80
32809;DHT22;19159;48.178;16.386;2023-07-20T12:26:17;30.70;58.10
32809;DHT22;19159;48.178;16.386;2023-07-20T12:28:43;30.70;57.20
32809;DHT22;19159;48.178;16.386;2023-07-20T12:31:09;30.50;57.10
32809;DHT22;19159;48.178;16.386;2023-07-20T12:33:36;30.60;57.30
32809;DHT22;19159;48.178;16.386;2023-07-20T12:36:04;30.50;57.60
32809;DHT22;19159;48.178;16.386;2023-07-20T12:38:30;30.50;57.10
32809;DHT22;19159;48.178;16.386;2023-07-20T12:41:01;30.40;56.90
32809;DHT22;19159;48.178;16.386;2023-07-20T12:43:27;30.40;57.20
32809;DHT22;19159;48.178;16.386;2023-07-20T12:45:52;30.50;57.20
32809;DHT22;19159;48.178;16.386;2023-07-20T12:48:18;30.50;57.10
32809;DHT22;19159;48.178;16.386;2023-07-20T12:50:44;30.70;57.00
32809;DHT22;19159;48.178;16.386;2023-07-20T12:53:10;30.70;56.50
32809;DHT22;19159;48.178;16.386;2023-07-20T12:55:35;30.70;56.40
32809;DHT22;19159;48.178;16.386;2023-07-20T12:58:01;30.50;55.30
32809;DHT22;19159;48.178;16.386;2023-07-20T13:00:26;30.40;55.70
32809;DHT22;19159;48.178;16.386;2023-07-20T13:02:52;30.40;56.20
32809;DHT22;19159;48.178;16.386;2023-07-20T13:05:18;30.50;55.60
32809;DHT22;19159;48.178;16.386;2023-07-20T13:07:43;30.50;55.50
32809;DHT22;19159;48.178;16.386;2023-07-20T13:10:11;30.70;55.80
32809;DHT22;19159;48.178;16.386;2023-07-20T13:12:37;30.60;55.30
32809;DHT22;19159;48.178;16.386;2023-07-20T13:15:07;30.60;55.20
32809;DHT22;19159;48.178;16.386;2023-07-20T13:17:38;30.70;56.00
32809;DHT22;19159;48.178;16.386;2023-07-20T13:20:08;30.70;55.30
32809;DHT22;19159;48.178;16.386;2023-07-20T13:22:37;30.90;55.30
32809;DHT22;19159;48.178;16.386;2023-07-20T13:25:04;30.70;54.50
32809;DHT22;19159;48.178;16.386;2023-07-20T13:27:29;30.60;55.10
32809;DHT22;19159;48.178;16.386;2023-07-20T13:29:57;30.60;55.30
32809;DHT22;19159;48.178;16.386;2023-07-20T13:32:23;30.50;54.80
32809;DHT22;19159;48.178;16.386;2023-07-20T13:34:48;30.40;55.10
32809;DHT22;19159;48.178;16.386;2023-07-20T13:37:14;30.40;55.40
32809;DHT22;19159;48.178;16.386;2023-07-20T13:39:41;30.40;55.30
32809;DHT22;19159;48.178;16.386;2023-07-20T13:42:07;30.50;55.30
32809;DHT22;19159;48.178;16.386;2023-07-20T13:44:34;30.40;54.50
32809;DHT22;19159;48.178;16.386;2023-07-20T13:47:04;30.40;54.80
32809;DHT22;19159;48.178;16.386;2023-07-20T13:49:32;30.50;54.90
32809;DHT22;19159;48.178;16.386;2023-07-20T13:51:58;30.30;54.30
32809;DHT22;19159;48.178;16.386;2023-07-20T13:54:25;30.20;54.30
32809;DHT22;19159;48.178;16.386;2023-07-20T13:56:50;30.20;54.90
32809;DHT22;19159;48.178;16.386;2023-07-20T13:59:17;30.10;54.30
32809;DHT22;19159;48.178;16.386;2023-07-20T14:01:42;30.20;54.40
32809;DHT22;19159;48.178;16.386;2023-07-20T14:04:08;30.30;54.50
32809;DHT22;19159;48.178;16.386;2023-07-20T14:06:35;30.40;54.80
32809;DHT22;19159;48.178;16.386;2023-07-20T14:09:01;30.40;54.70
32809;DHT22;19159;48.178;16.386;2023-07-20T14:11:27;30.40;54.60
32809;DHT22;19159;48.178;16.386;2023-07-20T14:13:53;30.40;54.90
32809;DHT22;19159;48.178;16.386;2023-07-20T14:16:19;30.60;55.60
32809;DHT22;19159;48.178;16.386;2023-07-20T14:18:45;30.70;54.90
32809;DHT22;19159;48.178;16.386;2023-07-20T14:21:14;30.90;54.80
32809;DHT22;19159;48.178;16.386;2023-07-20T14:23:40;30.90;54.10
32809;DHT22;19159;48.178;16.386;2023-07-20T14:26:06;31.00;56.20
32809;DHT22;19159;48.178;16.386;2023-07-20T14:28:33;31.00;56.80
32809;DHT22;19159;48.178;16.386;2023-07-20T14:30:58;31.10;55.20
32809;DHT22;19159;48.178;16.386;2023-07-20T14:33:24;31.20;54.30
32809;DHT22;19159;48.178;16.386;2023-07-20T14:35:50;31.20;54.10
32809;DHT22;19159;48.178;16.386;2023-07-20T14:38:15;31.20;55.50
32809;DHT22;19159;48.178;16.386;2023-07-20T14:40:41;31.20;56.00
32809;DHT22;19159;48.178;16.386;2023-07-20T14:43:07;31.30;55.80
32809;DHT22;19159;48.178;16.386;2023-07-20T14:45:33;31.30;55.40
32809;DHT22;19159;48.178;16.386;2023-07-20T14:47:59;31.40;54.90
32809;DHT22;19159;48.178;16.386;2023-07-20T14:50:25;31.30;53.70
32809;DHT22;19159;48.178;16.386;2023-07-20T14:52:50;31.30;53.80
32809;DHT22;19159;48.178;16.386;2023-07-20T14:55:16;31.20;53.70
32809;DHT22;19159;48.178;16.386;2023-07-20T14:57:42;31.20;53.70
32809;DHT22;19159;48.178;16.386;2023-07-20T15:00:08;31.20;53.90
32809;DHT22;19159;48.178;16.386;2023-07-20T15:02:38;31.30;54.30
32809;DHT22;19159;48.178;16.386;2023-07-20T15:05:08;31.30;53.80
32809;DHT22;19159;48.178;16.386;2023-07-20T15:07:34;31.30;53.40
32809;DHT22;19159;48.178;16.386;2023-07-20T15:10:00;31.30;53.60
32809;DHT22;19159;48.178;16.386;2023-07-20T15:12:25;31.30;53.50
32809;DHT22;19159;48.178;16.386;2023-07-20T15:15:08;31.40;53.80
32809;DHT22;19159;48.178;16.386;2023-07-20T15:17:35;31.40;53.60
32809;DHT22;19159;48.178;16.386;2023-07-20T15:20:02;31.40;53.70
32809;DHT22;19159;48.178;16.386;2023-07-20T15:22:30;31.30;53.30
32809;DHT22;19159;48.178;16.386;2023-07-20T15:24:56;31.20;53.50
32809;DHT22;19159;48.178;16.386;2023-07-20T15:27:22;31.10;53.80
32809;DHT22;19159;48.178;16.386;2023-07-20T15:29:48;31.10;53.90
32809;DHT22;19159;48.178;16.386;2023-07-20T15:32:14;31.10;54.10
32809;DHT22;19159;48.178;16.386;2023-07-20T15:34:42;31.20;53.90
32809;DHT22;19159;48.178;16.386;2023-07-20T15:37:08;31.20;54.10
32809;DHT22;19159;48.178;16.386;2023-07-20T15:39:35;31.30;54.20
32809;DHT22;19159;48.178;16.386;2023-07-20T15:42:01;31.30;54.20